sensor_id;sensor_type;location;lat;lon;timestamp;pressure;altitude;pressure_sealevel;temperature;humidity
6433;BME280;3249;42.690;23.260;2023-07-16T00:00:28;94549.66;;;22.51;100.00
6433;BME280;3249;42.690;23.260;2023-07-16T00:03:07;94540.31;;;21.98;100.00
6433;BME280;3249;42.690;23.260;2023-07-16T00:05:42;94556.22;;;22.07;100.00
6433;BME280;3249;42.690;23.260;2023-07-16T00:08:12;94549.88;;;22.31;100.00
6433;BME280;3249;42.690;23.260;2023-07-16T00:10:41;94517.31;;;22.14;100.00
6433;BME280;3249;42.690;23.260;2023-07-16T00:13:10;94556.69;;;22.32;100.00
6433;BME280;3249;42.690;23.260;2023-07-16T00:15:39;94539.25;;;22.23;100.00
6433;BME280;3249;42.690;23.260;2023-07-16T00:18:15;94532.00;;;22.15;100.00
6433;BME280;3249;42.690;23.260;2023-07-16T00:20:48;94543.22;;;22.20;100.00
6433;BME280;3249;42.690;23.260;2023-07-16T00:23:17;94541.13;;;22.17;100.00
6433;BME280;3249;42.690;23.260;2023-07-16T00:25:45;94542.22;;;22.16;100.00
6433;BME280;3249;42.690;23.260;2023-07-16T00:28:14;94547.22;;;22.13;100.00
6433;BME280;3249;42.690;23.260;2023-07-16T00:30:43;94545.94;;;22.10;100.00
6433;BME280;3249;42.690;23.260;2023-07-16T00:33:13;94541.41;;;22.16;100.00
6433;BME280;3249;42.690;23.260;2023-07-16T00:35:49;94537.41;;;21.76;100.00
6433;BME280;3249;42.690;23.260;2023-07-16T00:38:19;94539.75;;;22.01;100.00
6433;BME280;3249;42.690;23.260;2023-07-16T00:40:49;94543.75;;;22.17;100.00
6433;BME280;3249;42.690;23.260;2023-07-16T00:43:19;94546.25;;;22.27;100.00
6433;BME280;3249;42.690;23.260;2023-07-16T00:45:48;94543.13;;;22.25;100.00
6433;BME280;3249;42.690;23.260;2023-07-16T00:48:19;94544.13;;;22.29;100.00
6433;BME280;3249;42.690;23.260;2023-07-16T00:50:52;94544.69;;;21.84;100.00
6433;BME280;3249;42.690;23.260;2023-07-16T00:53:22;94542.84;;;21.56;100.00
6433;BME280;3249;42.690;23.260;2023-07-16T00:55:52;94551.53;;;21.51;100.00
6433;BME280;3249;42.690;23.260;2023-07-16T00:58:21;94544.28;;;21.72;100.00
6433;BME280;3249;42.690;23.260;2023-07-16T01:00:50;94539.31;;;21.94;100.00
6433;BME280;3249;42.690;23.260;2023-07-16T01:03:18;94544.44;;;22.04;100.00
6433;BME280;3249;42.690;23.260;2023-07-16T01:05:55;94537.31;;;22.10;100.00
6433;BME280;3249;42.690;23.260;2023-07-16T01:08:31;94527.44;;;22.02;100.00
6433;BME280;3249;42.690;23.260;2023-07-16T01:11:01;94541.69;;;22.14;100.00
6433;BME280;3249;42.690;23.260;2023-07-16T01:13:30;94545.09;;;22.15;100.00
6433;BME280;3249;42.690;23.260;2023-07-16T01:16:00;94540.47;;;22.07;100.00
6433;BME280;3249;42.690;23.260;2023-07-16T01:18:29;94538.09;;;21.86;100.00
6433;BME280;3249;42.690;23.260;2023-07-16T01:21:01;94532.66;;;21.78;100.00
6433;BME280;3249;42.690;23.260;2023-07-16T01:23:50;94537.63;;;22.03;100.00
6433;BME280;3249;42.690;23.260;2023-07-16T01:26:45;94547.06;;;22.04;100.00
6433;BME280;3249;42.690;23.260;2023-07-16T01:29:32;94543.16;;;22.02;100.00
6433;BME280;3249;42.690;23.260;2023-07-16T01:32:04;94527.72;;;22.00;100.00
6433;BME280;3249;42.690;23.260;2023-07-16T01:34:36;94540.22;;;22.08;100.00
6433;BME280;3249;42.690;23.260;2023-07-16T01:37:06;94543.44;;;22.00;100.00
6433;BME280;3249;42.690;23.260;2023-07-16T01:39:35;94537.63;;;21.79;100.00
6433;BME280;3249;42.690;23.260;2023-07-16T01:42:05;94519.91;;;21.71;100.00
6433;BME280;3249;42.690;23.260;2023-07-16T01:44:40;94543.38;;;22.05;100.00
6433;BME280;3249;42.690;23.260;2023-07-16T01:47:10;94542.94;;;21.98;100.00
6433;BME280;3249;42.690;23.260;2023-07-16T01:49:41;94544.72;;;22.02;100.00
6433;BME280;3249;42.690;23.260;2023-07-16T01:52:10;94530.69;;;21.93;100.00
6433;BME280;3249;42.690;23.260;2023-07-16T01:54:39;94547.66;;;22.20;100.00
6433;BME280;3249;42.690;23.260;2023-07-16T01:57:08;94523.75;;;22.02;100.00
6433;BME280;3249;42.690;23.260;2023-07-16T01:59:39;94550.00;;;22.21;100.00
6433;BME280;3249;42.690;23.260;2023-07-16T02:02:09;94543.31;;;22.10;100.00
6433;BME280;3249;42.690;23.260;2023-07-16T02:04:38;94551.34;;;22.19;100.00
6433;BME280;3249;42.690;23.260;2023-07-16T02:07:07;94544.56;;;21.94;100.00
6433;BME280;3249;42.690;23.260;2023-07-16T02:09:35;94543.25;;;21.68;100.00
6433;BME280;3249;42.690;23.260;2023-07-16T02:12:07;94543.69;;;21.75;100.00
6433;BME280;3249;42.690;23.260;2023-07-16T02:14:36;94540.75;;;21.53;100.00
6433;BME280;3249;42.690;23.260;2023-07-16T02:17:08;94547.09;;;21.47;100.00
6433;BME280;3249;42.690;23.260;2023-07-16T02:19:37;94545.13;;;21.34;100.00
6433;BME280;3249;42.690;23.260;2023-07-16T02:22:07;94546.66;;;21.40;100.00
6433;BME280;3249;42.690;23.260;2023-07-16T02:24:36;94547.63;;;21.49;100.00
6433;BME280;3249;42.690;23.260;2023-07-16T02:27:06;94551.09;;;21.68;100.00
6433;BME280;3249;42.690;23.260;2023-07-16T02:29:35;94552.34;;;21.75;100.00
6433;BME280;3249;42.690;23.260;2023-07-16T02:32:07;94539.63;;;21.35;100.00
6433;BME280;3249;42.690;23.260;2023-07-16T02:34:37;94554.97;;;21.47;100.00
6433;BME280;3249;42.690;23.260;2023-07-16T02:37:05;94554.41;;;21.50;100.00
6433;BME280;3249;42.690;23.260;2023-07-16T02:39:35;94547.00;;;21.57;100.00
6433;BME280;3249;42.690;23.260;2023-07-16T02:42:04;94547.50;;;21.59;100.00
6433;BME280;3249;42.690;23.260;2023-07-16T02:44:33;94551.41;;;21.61;100.00
6433;BME280;3249;42.690;23.260;2023-07-16T02:47:11;94549.41;;;21.82;100.00
6433;BME280;3249;42.690;23.260;2023-07-16T02:49:40;94559.28;;;21.90;100.00
6433;BME280;3249;42.690;23.260;2023-07-16T02:52:10;94550.47;;;21.81;100.00
6433;BME280;3249;42.690;23.260;2023-07-16T02:54:39;94551.25;;;21.81;100.00
6433;BME280;3249;42.690;23.260;2023-07-16T02:57:08;94550.94;;;21.83;100.00
6433;BME280;3249;42.690;23.260;2023-07-16T02:59:37;94552.41;;;21.94;100.00
6433;BME280;3249;42.690;23.260;2023-07-16T03:02:06;94562.34;;;21.97;100.00
6433;BME280;3249;42.690;23.260;2023-07-16T03:04:38;94557.94;;;21.92;100.00
6433;BME280;3249;42.690;23.260;2023-07-16T03:07:07;94563.19;;;21.92;100.00
6433;BME280;3249;42.690;23.260;2023-07-16T03:09:36;94558.84;;;22.07;100.00
6433;BME280;3249;42.690;23.260;2023-07-16T03:12:07;94562.13;;;21.93;100.00
6433;BME280;3249;42.690;23.260;2023-07-16T03:14:36;94563.41;;;21.96;100.00
6433;BME280;3249;42.690;23.260;2023-07-16T03:17:05;94565.25;;;21.95;100.00
6433;BME280;3249;42.690;23.260;2023-07-16T03:19:35;94561.59;;;22.15;100.00
6433;BME280;3249;42.690;23.260;2023-07-16T03:22:06;94563.41;;;22.20;100.00
6433;BME280;3249;42.690;23.260;2023-07-16T03:24:35;94565.84;;;22.35;100.00
6433;BME280;3249;42.690;23.260;2023-07-16T03:27:06;94545.94;;;22.34;100.00
6433;BME280;3249;42.690;23.260;2023-07-16T03:29:35;94543.22;;;22.39;100.00
6433;BME280;3249;42.690;23.260;2023-07-16T03:32:07;94573.84;;;22.67;100.00
6433;BME280;3249;42.690;23.260;2023-07-16T03:34:36;94570.66;;;22.88;100.00
6433;BME280;3249;42.690;23.260;2023-07-16T03:37:07;94578.25;;;23.08;100.00
6433;BME280;3249;42.690;23.260;2023-07-16T03:39:36;94578.88;;;23.00;100.00
6433;BME280;3249;42.690;23.260;2023-07-16T03:42:06;94583.50;;;22.90;100.00
6433;BME280;3249;42.690;23.260;2023-07-16T03:44:35;94583.91;;;22.60;100.00
6433;BME280;3249;42.690;23.260;2023-07-16T03:47:05;94582.44;;;22.54;100.00
6433;BME280;3249;42.690;23.260;2023-07-16T03:49:34;94587.56;;;22.40;100.00
6433;BME280;3249;42.690;23.260;2023-07-16T03:52:04;94584.97;;;22.59;100.00
6433;BME280;3249;42.690;23.260;2023-07-16T03:54:36;94581.00;;;22.98;100.00
6433;BME280;3249;42.690;23.260;2023-07-16T03:57:06;94587.25;;;23.39;100.00
6433;BME280;3249;42.690;23.260;2023-07-16T03:59:35;94599.13;;;23.37;100.00
6433;BME280;3249;42.690;23.260;2023-07-16T04:02:04;94602.13;;;23.94;100.00
6433;BME280;3249;42.690;23.260;2023-07-16T04:04:34;94601.25;;;24.12;100.00
6433;BME280;3249;42.690;23.260;2023-07-16T04:07:03;94606.31;;;24.22;100.00
6433;BME280;3249;42.690;23.260;2023-07-16T04:09:32;94608.06;;;24.40;100.00
6433;BME280;3249;42.690;23.260;2023-07-16T04:12:05;94604.84;;;24.57;100.00
6433;BME280;3249;42.690;23.260;2023-07-16T04:14:34;94612.53;;;24.80;100.00
6433;BME280;3249;42.690;23.260;2023-07-16T04:17:03;94610.19;;;24.79;100.00
6433;BME280;3249;42.690;23.260;2023-07-16T04:19:33;94612.03;;;24.92;100.00
6433;BME280;3249;42.690;23.260;2023-07-16T04:22:03;94614.16;;;24.90;100.00
6433;BME280;3249;42.690;23.260;2023-07-16T04:24:32;94622.00;;;25.30;100.00
6433;BME280;3249;42.690;23.260;2023-07-16T04:27:00;94616.88;;;25.34;100.00
6433;BME280;3249;42.690;23.260;2023-07-16T04:29:32;94593.63;;;24.78;100.00
6433;BME280;3249;42.690;23.260;2023-07-16T04:32:01;94616.31;;;25.01;100.00
6433;BME280;3249;42.690;23.260;2023-07-16T04:34:31;94608.59;;;24.91;100.00
6433;BME280;3249;42.690;23.260;2023-07-16T04:37:00;94608.06;;;24.67;100.00
6433;BME280;3249;42.690;23.260;2023-07-16T04:39:28;94622.41;;;24.61;100.00
6433;BME280;3249;42.690;23.260;2023-07-16T04:41:58;94617.63;;;24.63;100.00
6433;BME280;3249;42.690;23.260;2023-07-16T04:44:27;94621.28;;;23.95;100.00
6433;BME280;3249;42.690;23.260;2023-07-16T04:46:59;94614.56;;;23.38;100.00
6433;BME280;3249;42.690;23.260;2023-07-16T04:49:27;94612.38;;;23.08;100.00
6433;BME280;3249;42.690;23.260;2023-07-16T04:51:57;94618.03;;;23.52;100.00
6433;BME280;3249;42.690;23.260;2023-07-16T04:54:26;94621.81;;;23.78;100.00
6433;BME280;3249;42.690;23.260;2023-07-16T04:56:55;94623.84;;;24.13;100.00
6433;BME280;3249;42.690;23.260;2023-07-16T04:59:24;94619.75;;;24.07;100.00
6433;BME280;3249;42.690;23.260;2023-07-16T05:01:53;94625.41;;;24.41;100.00
6433;BME280;3249;42.690;23.260;2023-07-16T05:04:24;94628.63;;;24.65;100.00
6433;BME280;3249;42.690;23.260;2023-07-16T05:06:53;94631.25;;;24.79;100.00
6433;BME280;3249;42.690;23.260;2023-07-16T05:09:22;94631.47;;;24.82;100.00
6433;BME280;3249;42.690;23.260;2023-07-16T05:11:52;94635.09;;;24.73;100.00
6433;BME280;3249;42.690;23.260;2023-07-16T05:14:20;94630.22;;;24.66;100.00
6433;BME280;3249;42.690;23.260;2023-07-16T05:16:49;94622.97;;;24.58;100.00
6433;BME280;3249;42.690;23.260;2023-07-16T05:19:18;94633.13;;;24.78;100.00
6433;BME280;3249;42.690;23.260;2023-07-16T05:21:50;94633.97;;;25.01;100.00
6433;BME280;3249;42.690;23.260;2023-07-16T05:24:19;94630.84;;;24.85;100.00
6433;BME280;3249;42.690;23.260;2023-07-16T05:26:48;94643.53;;;24.97;100.00
6433;BME280;3249;42.690;23.260;2023-07-16T05:29:20;94639.34;;;24.96;100.00
6433;BME280;3249;42.690;23.260;2023-07-16T05:31:49;94613.44;;;24.35;100.00
6433;BME280;3249;42.690;23.260;2023-07-16T05:34:18;94633.00;;;24.43;100.00
6433;BME280;3249;42.690;23.260;2023-07-16T05:36:52;94639.66;;;24.40;100.00
6433;BME280;3249;42.690;23.260;2023-07-16T05:39:22;94643.53;;;24.29;100.00
6433;BME280;3249;42.690;23.260;2023-07-16T05:41:51;94645.69;;;24.54;100.00
6433;BME280;3249;42.690;23.260;2023-07-16T05:44:20;94641.88;;;24.33;100.00
6433;BME280;3249;42.690;23.260;2023-07-16T05:46:49;94647.66;;;24.76;100.00
6433;BME280;3249;42.690;23.260;2023-07-16T05:49:18;94652.91;;;24.49;100.00
6433;BME280;3249;42.690;23.260;2023-07-16T05:51:49;94647.03;;;24.92;100.00
6433;BME280;3249;42.690;23.260;2023-07-16T05:54:20;94649.69;;;24.92;100.00
6433;BME280;3249;42.690;23.260;2023-07-16T05:56:49;94654.72;;;25.16;100.00
6433;BME280;3249;42.690;23.260;2023-07-16T05:59:18;94658.78;;;25.35;100.00
6433;BME280;3249;42.690;23.260;2023-07-16T06:01:47;94644.41;;;24.79;100.00
6433;BME280;3249;42.690;23.260;2023-07-16T06:04:16;94654.78;;;24.62;100.00
6433;BME280;3249;42.690;23.260;2023-07-16T06:06:45;94650.72;;;25.05;100.00
6433;BME280;3249;42.690;23.260;2023-07-16T06:09:16;94656.84;;;25.14;100.00
6433;BME280;3249;42.690;23.260;2023-07-16T06:11:46;94658.97;;;24.76;100.00
6433;BME280;3249;42.690;23.260;2023-07-16T06:14:16;94658.06;;;25.08;100.00
6433;BME280;3249;42.690;23.260;2023-07-16T06:16:45;94631.88;;;25.11;100.00
6433;BME280;3249;42.690;23.260;2023-07-16T06:19:14;94653.72;;;25.25;100.00
6433;BME280;3249;42.690;23.260;2023-07-16T06:21:42;94667.66;;;25.39;100.00
6433;BME280;3249;42.690;23.260;2023-07-16T06:24:13;94664.66;;;25.54;100.00
6433;BME280;3249;42.690;23.260;2023-07-16T06:26:44;94662.94;;;25.72;100.00
6433;BME280;3249;42.690;23.260;2023-07-16T06:29:13;94664.56;;;25.81;100.00
6433;BME280;3249;42.690;23.260;2023-07-16T06:31:42;94654.22;;;25.71;100.00
6433;BME280;3249;42.690;23.260;2023-07-16T06:34:12;94647.41;;;25.70;100.00
6433;BME280;3249;42.690;23.260;2023-07-16T06:36:41;94655.06;;;25.58;100.00
6433;BME280;3249;42.690;23.260;2023-07-16T06:39:10;94649.06;;;25.44;100.00
6433;BME280;3249;42.690;23.260;2023-07-16T06:41:39;94653.81;;;25.78;100.00
6433;BME280;3249;42.690;23.260;2023-07-16T06:44:10;94651.66;;;25.36;100.00
6433;BME280;3249;42.690;23.260;2023-07-16T06:46:39;94648.47;;;25.47;100.00
6433;BME280;3249;42.690;23.260;2023-07-16T06:49:09;94650.63;;;25.67;100.00
6433;BME280;3249;42.690;23.260;2023-07-16T06:51:37;94656.34;;;25.83;100.00
6433;BME280;3249;42.690;23.260;2023-07-16T06:54:07;94654.00;;;25.59;100.00
6433;BME280;3249;42.690;23.260;2023-07-16T06:56:36;94645.22;;;25.72;100.00
6433;BME280;3249;42.690;23.260;2023-07-16T06:59:05;94626.81;;;25.81;100.00
6433;BME280;3249;42.690;23.260;2023-07-16T07:01:36;94654.22;;;25.93;100.00
6433;BME280;3249;42.690;23.260;2023-07-16T07:04:06;94658.50;;;26.42;100.00
6433;BME280;3249;42.690;23.260;2023-07-16T07:06:35;94664.88;;;26.72;100.00
6433;BME280;3249;42.690;23.260;2023-07-16T07:09:04;94661.00;;;26.86;100.00
6433;BME280;3249;42.690;23.260;2023-07-16T07:11:33;94661.63;;;26.75;100.00
6433;BME280;3249;42.690;23.260;2023-07-16T07:14:01;94648.06;;;26.29;100.00
6433;BME280;3249;42.690;23.260;2023-07-16T07:16:30;94654.03;;;26.43;100.00
6433;BME280;3249;42.690;23.260;2023-07-16T07:19:02;94658.09;;;26.49;100.00
6433;BME280;3249;42.690;23.260;2023-07-16T07:21:31;94653.53;;;26.71;100.00
6433;BME280;3249;42.690;23.260;2023-07-16T07:24:01;94651.06;;;26.92;100.00
6433;BME280;3249;42.690;23.260;2023-07-16T07:26:29;94650.72;;;26.68;100.00
6433;BME280;3249;42.690;23.260;2023-07-16T07:28:59;94649.38;;;26.96;100.00
6433;BME280;3249;42.690;23.260;2023-07-16T07:31:28;94647.88;;;27.20;100.00
6433;BME280;3249;42.690;23.260;2023-07-16T07:33:57;94661.13;;;27.46;100.00
6433;BME280;3249;42.690;23.260;2023-07-16T07:36:28;94655.53;;;26.66;100.00
6433;BME280;3249;42.690;23.260;2023-07-16T07:38:57;94644.22;;;26.74;100.00
6433;BME280;3249;42.690;23.260;2023-07-16T07:41:26;94647.53;;;27.05;100.00
6433;BME280;3249;42.690;23.260;2023-07-16T07:43:56;94651.31;;;27.21;100.00
6433;BME280;3249;42.690;23.260;2023-07-16T07:46:25;94651.84;;;26.84;100.00
6433;BME280;3249;42.690;23.260;2023-07-16T07:48:54;94654.19;;;26.77;100.00
6433;BME280;3249;42.690;23.260;2023-07-16T07:51:23;94656.41;;;27.09;100.00
6433;BME280;3249;42.690;23.260;2023-07-16T07:53:54;94649.06;;;26.97;100.00
6433;BME280;3249;42.690;23.260;2023-07-16T07:56:23;94643.97;;;27.01;100.00
6433;BME280;3249;42.690;23.260;2023-07-16T07:58:53;94646.59;;;27.01;100.00
6433;BME280;3249;42.690;23.260;2023-07-16T08:01:22;94648.38;;;27.22;100.00
6433;BME280;3249;42.690;23.260;2023-07-16T08:03:51;94651.47;;;27.50;100.00
6433;BME280;3249;42.690;23.260;2023-07-16T08:06:20;94649.13;;;27.65;100.00
6433;BME280;3249;42.690;23.260;2023-07-16T08:08:48;94645.56;;;27.53;100.00
6433;BME280;3249;42.690;23.260;2023-07-16T08:11:20;94654.41;;;27.91;99.06
6433;BME280;3249;42.690;23.260;2023-07-16T08:13:51;94650.69;;;27.83;96.85
6433;BME280;3249;42.690;23.260;2023-07-16T08:16:20;94643.16;;;28.11;95.00
6433;BME280;3249;42.690;23.260;2023-07-16T08:18:49;94656.25;;;28.07;93.64
6433;BME280;3249;42.690;23.260;2023-07-16T08:21:18;94651.28;;;27.80;97.52
6433;BME280;3249;42.690;23.260;2023-07-16T08:23:50;94653.41;;;28.21;91.89
6433;BME280;3249;42.690;23.260;2023-07-16T08:26:22;94651.47;;;27.84;93.20
6433;BME280;3249;42.690;23.260;2023-07-16T08:28:52;94660.81;;;27.73;91.34
6433;BME280;3249;42.690;23.260;2023-07-16T08:31:21;94651.56;;;28.04;88.66
6433;BME280;3249;42.690;23.260;2023-07-16T08:33:53;94654.22;;;28.04;91.84
6433;BME280;3249;42.690;23.260;2023-07-16T08:36:22;94624.53;;;27.65;92.37
6433;BME280;3249;42.690;23.260;2023-07-16T08:38:51;94638.06;;;27.80;92.10
6433;BME280;3249;42.690;23.260;2023-07-16T08:41:24;94657.97;;;28.12;91.40
6433;BME280;3249;42.690;23.260;2023-07-16T08:43:56;94651.28;;;27.80;91.69
6433;BME280;3249;42.690;23.260;2023-07-16T08:46:25;94651.28;;;27.97;90.49
6433;BME280;3249;42.690;23.260;2023-07-16T08:48:55;94655.88;;;28.34;86.86
6433;BME280;3249;42.690;23.260;2023-07-16T08:51:25;94644.13;;;27.89;89.92
6433;BME280;3249;42.690;23.260;2023-07-16T08:53:55;94644.59;;;28.00;91.91
6433;BME280;3249;42.690;23.260;2023-07-16T08:56:28;94639.63;;;27.73;94.93
6433;BME280;3249;42.690;23.260;2023-07-16T08:58:57;94645.72;;;27.90;93.30
6433;BME280;3249;42.690;23.260;2023-07-16T09:01:27;94649.06;;;28.16;89.40
6433;BME280;3249;42.690;23.260;2023-07-16T09:03:56;94647.00;;;28.22;91.07
6433;BME280;3249;42.690;23.260;2023-07-16T09:06:27;94641.78;;;28.05;90.39
6433;BME280;3249;42.690;23.260;2023-07-16T09:08:56;94641.16;;;27.91;91.33
6433;BME280;3249;42.690;23.260;2023-07-16T09:11:27;94589.97;;;27.87;93.01
6433;BME280;3249;42.690;23.260;2023-07-16T09:13:56;94640.09;;;28.38;88.34
6433;BME280;3249;42.690;23.260;2023-07-16T09:16:25;94637.03;;;28.19;92.37
6433;BME280;3249;42.690;23.260;2023-07-16T09:18:54;94623.25;;;28.05;88.83
6433;BME280;3249;42.690;23.260;2023-07-16T09:21:25;94631.38;;;28.46;85.72
6433;BME280;3249;42.690;23.260;2023-07-16T09:24:00;94633.28;;;28.28;85.93
6433;BME280;3249;42.690;23.260;2023-07-16T09:26:31;94630.09;;;28.52;84.07
6433;BME280;3249;42.690;23.260;2023-07-16T09:29:00;94639.50;;;28.70;86.91
6433;BME280;3249;42.690;23.260;2023-07-16T09:31:30;94635.44;;;28.43;87.36
6433;BME280;3249;42.690;23.260;2023-07-16T09:33:59;94628.09;;;28.40;87.63
6433;BME280;3249;42.690;23.260;2023-07-16T09:36:28;94632.06;;;28.63;86.04
6433;BME280;3249;42.690;23.260;2023-07-16T09:38:59;94636.56;;;29.00;81.77
6433;BME280;3249;42.690;23.260;2023-07-16T09:41:32;94630.38;;;28.88;82.63
6433;BME280;3249;42.690;23.260;2023-07-16T09:44:06;94628.81;;;28.58;81.87
6433;BME280;3249;42.690;23.260;2023-07-16T09:46:36;94627.34;;;28.98;83.10
6433;BME280;3249;42.690;23.260;2023-07-16T09:49:06;94620.16;;;29.07;80.37
6433;BME280;3249;42.690;23.260;2023-07-16T09:51:36;94632.88;;;29.34;78.43
6433;BME280;3249;42.690;23.260;2023-07-16T09:54:06;94629.91;;;29.35;78.29
6433;BME280;3249;42.690;23.260;2023-07-16T09:56:41;94627.66;;;29.25;80.18
6433;BME280;3249;42.690;23.260;2023-07-16T09:59:14;94622.09;;;29.39;77.33
6433;BME280;3249;42.690;23.260;2023-07-16T10:01:44;94624.91;;;29.54;77.87
6433;BME280;3249;42.690;23.260;2023-07-16T10:04:14;94626.84;;;29.66;75.00
6433;BME280;3249;42.690;23.260;2023-07-16T10:06:53;94598.81;;;29.77;73.20
6433;BME280;3249;42.690;23.260;2023-07-16T10:09:38;94613.75;;;30.14;72.67
6433;BME280;3249;42.690;23.260;2023-07-16T10:12:11;94617.41;;;30.22;76.10
6433;BME280;3249;42.690;23.260;2023-07-16T10:14:42;94622.28;;;30.32;73.32
6433;BME280;3249;42.690;23.260;2023-07-16T10:17:15;94601.47;;;29.77;78.61
6433;BME280;3249;42.690;23.260;2023-07-16T10:19:51;94612.03;;;29.65;77.75
6433;BME280;3249;42.690;23.260;2023-07-16T10:22:31;94606.28;;;29.63;75.21
6433;BME280;3249;42.690;23.260;2023-07-16T10:25:00;94608.63;;;29.65;79.19
6433;BME280;3249;42.690;23.260;2023-07-16T10:27:33;94605.53;;;29.54;73.75
6433;BME280;3249;42.690;23.260;2023-07-16T10:30:05;94593.34;;;29.62;73.29
6433;BME280;3249;42.690;23.260;2023-07-16T10:32:36;94600.38;;;29.90;70.08
6433;BME280;3249;42.690;23.260;2023-07-16T10:35:08;94601.28;;;30.06;67.77
6433;BME280;3249;42.690;23.260;2023-07-16T10:37:38;94590.66;;;30.06;66.50
6433;BME280;3249;42.690;23.260;2023-07-16T10:40:10;94601.72;;;30.29;66.38
6433;BME280;3249;42.690;23.260;2023-07-16T10:42:45;94608.91;;;30.40;68.18
6433;BME280;3249;42.690;23.260;2023-07-16T10:45:18;94598.38;;;30.56;69.32
6433;BME280;3249;42.690;23.260;2023-07-16T10:47:53;94606.41;;;30.11;69.81
6433;BME280;3249;42.690;23.260;2023-07-16T10:50:26;94601.44;;;30.10;66.35
6433;BME280;3249;42.690;23.260;2023-07-16T10:52:56;94587.81;;;29.99;67.95
6433;BME280;3249;42.690;23.260;2023-07-16T10:55:27;94574.03;;;30.30;66.32
6433;BME280;3249;42.690;23.260;2023-07-16T10:58:04;94584.09;;;30.24;65.90
6433;BME280;3249;42.690;23.260;2023-07-16T11:00:43;94584.97;;;30.16;72.82
6433;BME280;3249;42.690;23.260;2023-07-16T11:03:15;94593.84;;;30.44;70.75
6433;BME280;3249;42.690;23.260;2023-07-16T11:05:45;94590.22;;;30.49;71.34
6433;BME280;3249;42.690;23.260;2023-07-16T11:08:21;94590.31;;;30.76;67.78
6433;BME280;3249;42.690;23.260;2023-07-16T11:10:55;94590.75;;;30.42;70.39
6433;BME280;3249;42.690;23.260;2023-07-16T11:13:31;94575.25;;;30.20;69.10
6433;BME280;3249;42.690;23.260;2023-07-16T11:16:07;94587.31;;;30.54;65.42
6433;BME280;3249;42.690;23.260;2023-07-16T11:18:42;94578.69;;;30.81;65.23
6433;BME280;3249;42.690;23.260;2023-07-16T11:21:11;94575.88;;;30.89;64.90
6433;BME280;3249;42.690;23.260;2023-07-16T11:23:42;94578.66;;;30.93;60.93
6433;BME280;3249;42.690;23.260;2023-07-16T11:26:15;94583.09;;;31.01;56.98
6433;BME280;3249;42.690;23.260;2023-07-16T11:28:50;94560.63;;;30.86;53.02
6433;BME280;3249;42.690;23.260;2023-07-16T11:31:19;94574.16;;;31.33;56.96
6433;BME280;3249;42.690;23.260;2023-07-16T11:33:51;94520.59;;;30.83;52.58
6433;BME280;3249;42.690;23.260;2023-07-16T11:36:20;94567.00;;;30.97;56.28
6433;BME280;3249;42.690;23.260;2023-07-16T11:38:49;94567.47;;;30.87;55.92
6433;BME280;3249;42.690;23.260;2023-07-16T11:41:21;94545.81;;;31.13;52.75
6433;BME280;3249;42.690;23.260;2023-07-16T11:43:52;94577.13;;;31.31;53.83
6433;BME280;3249;42.690;23.260;2023-07-16T11:46:22;94570.50;;;31.25;54.05
6433;BME280;3249;42.690;23.260;2023-07-16T11:49:10;94571.28;;;31.53;56.13
6433;BME280;3249;42.690;23.260;2023-07-16T11:51:39;94575.75;;;31.49;53.05
6433;BME280;3249;42.690;23.260;2023-07-16T11:54:10;94575.78;;;31.37;55.13
6433;BME280;3249;42.690;23.260;2023-07-16T11:56:40;94546.69;;;31.17;55.91
6433;BME280;3249;42.690;23.260;2023-07-16T11:59:12;94550.72;;;30.99;57.88
6433;BME280;3249;42.690;23.260;2023-07-16T12:01:42;94559.22;;;31.04;55.01
6433;BME280;3249;42.690;23.260;2023-07-16T12:04:17;94566.94;;;31.21;52.77
6433;BME280;3249;42.690;23.260;2023-07-16T12:06:47;94563.41;;;31.17;53.46
6433;BME280;3249;42.690;23.260;2023-07-16T12:09:19;94561.31;;;31.11;53.37
6433;BME280;3249;42.690;23.260;2023-07-16T12:11:51;94550.31;;;31.24;55.34
6433;BME280;3249;42.690;23.260;2023-07-16T12:14:25;94562.72;;;31.60;51.20
6433;BME280;3249;42.690;23.260;2023-07-16T12:16:55;94563.16;;;31.34;52.99
6433;BME280;3249;42.690;23.260;2023-07-16T12:19:25;94560.66;;;31.53;48.06
6433;BME280;3249;42.690;23.260;2023-07-16T12:21:58;94564.63;;;31.75;44.19
6433;BME280;3249;42.690;23.260;2023-07-16T12:24:27;94556.09;;;31.81;42.95
6433;BME280;3249;42.690;23.260;2023-07-16T12:27:00;94555.09;;;31.74;41.95
6433;BME280;3249;42.690;23.260;2023-07-16T12:29:32;94562.53;;;31.96;41.27
6433;BME280;3249;42.690;23.260;2023-07-16T12:32:08;94542.69;;;31.93;41.04
6433;BME280;3249;42.690;23.260;2023-07-16T12:34:37;94543.09;;;31.52;43.92
6433;BME280;3249;42.690;23.260;2023-07-16T12:37:15;94542.19;;;31.88;41.87
6433;BME280;3249;42.690;23.260;2023-07-16T12:39:47;94557.81;;;31.89;43.57
6433;BME280;3249;42.690;23.260;2023-07-16T12:42:16;94546.28;;;31.58;44.37
6433;BME280;3249;42.690;23.260;2023-07-16T12:44:53;94541.56;;;31.51;42.51
6433;BME280;3249;42.690;23.260;2023-07-16T12:47:23;94553.34;;;31.66;38.78
6433;BME280;3249;42.690;23.260;2023-07-16T12:49:56;94556.03;;;31.66;41.04
6433;BME280;3249;42.690;23.260;2023-07-16T12:52:28;94549.75;;;31.74;43.47
6433;BME280;3249;42.690;23.260;2023-07-16T12:55:00;94545.19;;;32.02;41.27
6433;BME280;3249;42.690;23.260;2023-07-16T12:57:29;94552.16;;;32.06;42.22
6433;BME280;3249;42.690;23.260;2023-07-16T13:00:01;94544.91;;;31.91;44.15
6433;BME280;3249;42.690;23.260;2023-07-16T13:02:36;94545.00;;;32.26;40.29
6433;BME280;3249;42.690;23.260;2023-07-16T13:05:05;94545.28;;;32.36;39.18
6433;BME280;3249;42.690;23.260;2023-07-16T13:07:34;94539.78;;;32.29;37.38
6433;BME280;3249;42.690;23.260;2023-07-16T13:10:07;94549.81;;;32.51;36.84
6433;BME280;3249;42.690;23.260;2023-07-16T13:12:37;94549.53;;;32.56;35.22
6433;BME280;3249;42.690;23.260;2023-07-16T13:15:12;94553.56;;;32.66;34.99
6433;BME280;3249;42.690;23.260;2023-07-16T13:17:41;94545.44;;;32.59;35.26
6433;BME280;3249;42.690;23.260;2023-07-16T13:20:10;94541.31;;;32.96;35.45
6433;BME280;3249;42.690;23.260;2023-07-16T13:22:40;94541.97;;;33.08;35.99